sensor_id;sensor_type;location;lat;lon;timestamp;P1;durP1;ratioP1;P2;durP2;ratioP2
21862;SDS011;11096;51.338;12.524;2022-10-31T00:01:26;7.28;;;4.32;;
21862;SDS011;11096;51.338;12.524;2022-10-31T00:03:54;12.40;;;4.78;;
21862;SDS011;11096;51.338;12.524;2022-10-31T00:06:19;13.23;;;4.68;;
21862;SDS011;11096;51.338;12.524;2022-10-31T00:08:55;11.65;;;5.38;;
21862;SDS011;11096;51.338;12.524;2022-10-31T00:11:22;8.30;;;4.45;;
21862;SDS011;11096;51.338;12.524;2022-10-31T00:13:48;9.90;;;4.43;;
21862;SDS011;11096;51.338;12.524;2022-10-31T00:16:18;8.73;;;4.63;;
21862;SDS011;11096;51.338;12.524;2022-10-31T00:18:48;6.30;;;3.65;;
21862;SDS011;11096;51.338;12.524;2022-10-31T00:21:18;8.60;;;4.60;;
21862;SDS011;11096;51.338;12.524;2022-10-31T00:23:44;9.52;;;4.18;;
21862;SDS011;11096;51.338;12.524;2022-10-31T00:26:10;11.07;;;4.60;;
21862;SDS011;11096;51.338;12.524;2022-10-31T00:28:35;10.85;;;4.40;;
21862;SDS011;11096;51.338;12.524;2022-10-31T00:31:01;11.27;;;5.05;;
21862;SDS011;11096;51.338;12.524;2022-10-31T00:33:27;10.35;;;4.80;;
21862;SDS011;11096;51.338;12.524;2022-10-31T00:35:53;8.10;;;4.32;;
21862;SDS011;11096;51.338;12.524;2022-10-31T00:38:18;9.70;;;5.07;;
21862;SDS011;11096;51.338;12.524;2022-10-31T00:40:44;9.15;;;4.10;;
21862;SDS011;11096;51.338;12.524;2022-10-31T00:43:09;10.98;;;4.38;;
21862;SDS011;11096;51.338;12.524;2022-10-31T00:45:34;7.55;;;4.13;;
21862;SDS011;11096;51.338;12.524;2022-10-31T00:48:00;7.57;;;4.60;;
21862;SDS011;11096;51.338;12.524;2022-10-31T00:50:25;8.00;;;4.18;;
21862;SDS011;11096;51.338;12.524;2022-10-31T00:52:50;8.68;;;4.65;;
21862;SDS011;11096;51.338;12.524;2022-10-31T00:55:16;7.80;;;4.57;;
21862;SDS011;11096;51.338;12.524;2022-10-31T00:57:41;7.13;;;4.32;;
21862;SDS011;11096;51.338;12.524;2022-10-31T01:00:07;12.85;;;5.20;;
21862;SDS011;11096;51.338;12.524;2022-10-31T01:02:33;10.77;;;4.75;;
21862;SDS011;11096;51.338;12.524;2022-10-31T01:04:58;8.65;;;4.50;;
21862;SDS011;11096;51.338;12.524;2022-10-31T01:07:23;9.50;;;4.53;;
21862;SDS011;11096;51.338;12.524;2022-10-31T01:09:49;14.68;;;4.80;;
21862;SDS011;11096;51.338;12.524;2022-10-31T01:12:14;11.45;;;4.93;;
21862;SDS011;11096;51.338;12.524;2022-10-31T01:14:42;9.77;;;4.63;;
21862;SDS011;11096;51.338;12.524;2022-10-31T01:17:09;7.40;;;4.30;;
21862;SDS011;11096;51.338;12.524;2022-10-31T01:19:35;8.70;;;4.60;;
21862;SDS011;11096;51.338;12.524;2022-10-31T01:22:00;8.07;;;4.55;;
21862;SDS011;11096;51.338;12.524;2022-10-31T01:24:26;9.68;;;4.38;;
21862;SDS011;11096;51.338;12.524;2022-10-31T01:26:51;7.72;;;3.88;;
21862;SDS011;11096;51.338;12.524;2022-10-31T01:29:16;8.07;;;4.15;;
21862;SDS011;11096;51.338;12.524;2022-10-31T01:31:44;10.93;;;4.68;;
21862;SDS011;11096;51.338;12.524;2022-10-31T01:34:12;8.63;;;4.57;;
21862;SDS011;11096;51.338;12.524;2022-10-31T01:36:39;10.18;;;3.92;;
21862;SDS011;11096;51.338;12.524;2022-10-31T01:39:07;9.70;;;4.15;;
21862;SDS011;11096;51.338;12.524;2022-10-31T01:41:37;7.35;;;4.45;;
21862;SDS011;11096;51.338;12.524;2022-10-31T01:46:50;9.88;;;4.70;;
21862;SDS011;11096;51.338;12.524;2022-10-31T01:52:02;8.20;;;4.20;;
21862;SDS011;11096;51.338;12.524;2022-10-31T01:54:30;7.28;;;4.18;;
21862;SDS011;11096;51.338;12.524;2022-10-31T01:57:01;6.85;;;4.03;;
21862;SDS011;11096;51.338;12.524;2022-10-31T01:59:30;9.00;;;4.13;;
21862;SDS011;11096;51.338;12.524;2022-10-31T02:01:59;9.75;;;4.45;;
21862;SDS011;11096;51.338;12.524;2022-10-31T02:04:24;12.48;;;3.92;;
21862;SDS011;11096;51.338;12.524;2022-10-31T02:06:52;7.97;;;3.90;;
21862;SDS011;11096;51.338;12.524;2022-10-31T02:09:22;8.48;;;3.95;;
21862;SDS011;11096;51.338;12.524;2022-10-31T02:11:51;5.88;;;3.40;;
21862;SDS011;11096;51.338;12.524;2022-10-31T02:14:21;8.82;;;3.90;;
21862;SDS011;11096;51.338;12.524;2022-10-31T02:16:48;8.23;;;4.50;;
21862;SDS011;11096;51.338;12.524;2022-10-31T02:19:15;8.65;;;4.28;;
21862;SDS011;11096;51.338;12.524;2022-10-31T02:21:53;9.77;;;4.30;;
21862;SDS011;11096;51.338;12.524;2022-10-31T02:24:41;8.13;;;4.05;;
21862;SDS011;11096;51.338;12.524;2022-10-31T02:29:59;7.65;;;4.30;;
21862;SDS011;11096;51.338;12.524;2022-10-31T02:35:05;8.15;;;4.05;;
21862;SDS011;11096;51.338;12.524;2022-10-31T02:40:15;8.05;;;3.33;;
21862;SDS011;11096;51.338;12.524;2022-10-31T02:48:19;6.88;;;4.10;;
21862;SDS011;11096;51.338;12.524;2022-10-31T02:50:52;5.53;;;3.42;;
21862;SDS011;11096;51.338;12.524;2022-10-31T02:53:21;9.43;;;3.75;;
21862;SDS011;11096;51.338;12.524;2022-10-31T02:55:51;5.90;;;3.47;;
21862;SDS011;11096;51.338;12.524;2022-10-31T02:58:40;7.05;;;3.45;;
21862;SDS011;11096;51.338;12.524;2022-10-31T03:01:18;5.75;;;3.40;;
21862;SDS011;11096;51.338;12.524;2022-10-31T03:12:09;6.28;;;3.35;;
21862;SDS011;11096;51.338;12.524;2022-10-31T03:14:43;6.82;;;3.78;;
21862;SDS011;11096;51.338;12.524;2022-10-31T03:17:31;7.80;;;3.50;;
21862;SDS011;11096;51.338;12.524;2022-10-31T03:20:01;7.82;;;3.42;;
21862;SDS011;11096;51.338;12.524;2022-10-31T03:22:29;6.68;;;3.38;;
21862;SDS011;11096;51.338;12.524;2022-10-31T03:24:58;7.68;;;3.45;;
21862;SDS011;11096;51.338;12.524;2022-10-31T03:27:27;8.93;;;3.92;;
21862;SDS011;11096;51.338;12.524;2022-10-31T03:29:57;10.05;;;3.70;;
21862;SDS011;11096;51.338;12.524;2022-10-31T03:34:59;9.88;;;3.70;;
21862;SDS011;11096;51.338;12.524;2022-10-31T03:37:27;7.18;;;3.33;;
21862;SDS011;11096;51.338;12.524;2022-10-31T03:39:55;9.15;;;3.65;;
21862;SDS011;11096;51.338;12.524;2022-10-31T03:42:27;6.22;;;3.70;;
21862;SDS011;11096;51.338;12.524;2022-10-31T03:45:06;5.13;;;3.15;;
21862;SDS011;11096;51.338;12.524;2022-10-31T03:47:45;8.55;;;3.13;;
21862;SDS011;11096;51.338;12.524;2022-10-31T03:50:12;9.18;;;3.33;;
21862;SDS011;11096;51.338;12.524;2022-10-31T03:52:47;13.32;;;3.38;;
21862;SDS011;11096;51.338;12.524;2022-10-31T03:55:26;6.32;;;3.40;;
21862;SDS011;11096;51.338;12.524;2022-10-31T03:58:08;11.02;;;3.88;;
21862;SDS011;11096;51.338;12.524;2022-10-31T04:00:38;7.45;;;4.13;;
21862;SDS011;11096;51.338;12.524;2022-10-31T04:03:09;10.35;;;3.78;;
21862;SDS011;11096;51.338;12.524;2022-10-31T04:05:39;8.82;;;3.55;;
21862;SDS011;11096;51.338;12.524;2022-10-31T04:08:08;6.00;;;3.33;;
21862;SDS011;11096;51.338;12.524;2022-10-31T04:10:37;7.43;;;3.55;;
21862;SDS011;11096;51.338;12.524;2022-10-31T04:13:10;5.88;;;3.75;;
21862;SDS011;11096;51.338;12.524;2022-10-31T04:15:39;6.70;;;3.85;;
21862;SDS011;11096;51.338;12.524;2022-10-31T04:18:07;4.78;;;3.38;;
21862;SDS011;11096;51.338;12.524;2022-10-31T04:20:34;9.30;;;3.97;;
21862;SDS011;11096;51.338;12.524;2022-10-31T04:23:01;9.18;;;4.10;;
21862;SDS011;11096;51.338;12.524;2022-10-31T04:25:27;11.77;;;3.55;;
21862;SDS011;11096;51.338;12.524;2022-10-31T04:27:53;8.23;;;3.70;;
21862;SDS011;11096;51.338;12.524;2022-10-31T04:30:18;8.68;;;4.03;;
21862;SDS011;11096;51.338;12.524;2022-10-31T04:32:44;9.25;;;4.03;;
21862;SDS011;11096;51.338;12.524;2022-10-31T04:35:09;7.40;;;3.40;;
21862;SDS011;11096;51.338;12.524;2022-10-31T04:37:34;6.70;;;3.40;;
21862;SDS011;11096;51.338;12.524;2022-10-31T04:40:00;6.00;;;3.47;;
21862;SDS011;11096;51.338;12.524;2022-10-31T04:42:26;6.28;;;3.45;;
21862;SDS011;11096;51.338;12.524;2022-10-31T04:44:54;8.35;;;4.20;;
21862;SDS011;11096;51.338;12.524;2022-10-31T04:47:19;6.80;;;3.88;;
21862;SDS011;11096;51.338;12.524;2022-10-31T04:49:44;7.13;;;3.88;;
21862;SDS011;11096;51.338;12.524;2022-10-31T04:52:10;6.57;;;3.33;;
21862;SDS011;11096;51.338;12.524;2022-10-31T04:54:35;8.85;;;4.13;;
21862;SDS011;11096;51.338;12.524;2022-10-31T04:57:00;5.38;;;2.83;;
21862;SDS011;11096;51.338;12.524;2022-10-31T04:59:25;5.65;;;3.33;;
21862;SDS011;11096;51.338;12.524;2022-10-31T05:01:51;5.28;;;3.28;;
21862;SDS011;11096;51.338;12.524;2022-10-31T05:04:16;4.18;;;2.97;;
21862;SDS011;11096;51.338;12.524;2022-10-31T05:06:41;5.53;;;3.55;;
21862;SDS011;11096;51.338;12.524;2022-10-31T05:09:07;6.47;;;3.30;;
21862;SDS011;11096;51.338;12.524;2022-10-31T05:11:32;5.65;;;3.10;;
21862;SDS011;11096;51.338;12.524;2022-10-31T05:13:57;6.68;;;4.10;;
21862;SDS011;11096;51.338;12.524;2022-10-31T05:16:23;7.57;;;3.78;;
21862;SDS011;11096;51.338;12.524;2022-10-31T05:18:48;6.95;;;3.70;;
21862;SDS011;11096;51.338;12.524;2022-10-31T05:21:13;4.50;;;3.13;;
21862;SDS011;11096;51.338;12.524;2022-10-31T05:23:38;7.18;;;3.50;;
21862;SDS011;11096;51.338;12.524;2022-10-31T05:26:04;12.52;;;4.63;;
21862;SDS011;11096;51.338;12.524;2022-10-31T05:28:29;7.70;;;3.67;;
21862;SDS011;11096;51.338;12.524;2022-10-31T05:30:55;7.10;;;3.40;;
21862;SDS011;11096;51.338;12.524;2022-10-31T05:33:20;8.60;;;3.38;;
21862;SDS011;11096;51.338;12.524;2022-10-31T05:35:45;8.27;;;3.28;;
21862;SDS011;11096;51.338;12.524;2022-10-31T05:38:10;5.85;;;3.35;;
21862;SDS011;11096;51.338;12.524;2022-10-31T05:40:36;4.88;;;2.97;;
21862;SDS011;11096;51.338;12.524;2022-10-31T05:43:01;4.85;;;2.63;;
21862;SDS011;11096;51.338;12.524;2022-10-31T05:45:27;4.32;;;2.17;;
21862;SDS011;11096;51.338;12.524;2022-10-31T05:47:56;2.97;;;2.17;;
21862;SDS011;11096;51.338;12.524;2022-10-31T05:50:26;3.03;;;1.90;;
21862;SDS011;11096;51.338;12.524;2022-10-31T05:53:03;5.28;;;2.30;;
21862;SDS011;11096;51.338;12.524;2022-10-31T05:55:29;5.03;;;2.53;;
21862;SDS011;11096;51.338;12.524;2022-10-31T05:57:55;5.50;;;2.28;;
21862;SDS011;11096;51.338;12.524;2022-10-31T06:00:21;3.58;;;2.50;;
21862;SDS011;11096;51.338;12.524;2022-10-31T06:02:47;5.47;;;3.10;;
21862;SDS011;11096;51.338;12.524;2022-10-31T06:05:13;10.88;;;3.20;;
21862;SDS011;11096;51.338;12.524;2022-10-31T06:07:38;5.65;;;3.13;;
21862;SDS011;11096;51.338;12.524;2022-10-31T06:10:04;6.53;;;2.60;;
21862;SDS011;11096;51.338;12.524;2022-10-31T06:12:31;6.75;;;2.47;;
21862;SDS011;11096;51.338;12.524;2022-10-31T06:14:56;4.18;;;2.50;;
21862;SDS011;11096;51.338;12.524;2022-10-31T06:17:22;4.55;;;2.88;;
21862;SDS011;11096;51.338;12.524;2022-10-31T06:19:47;4.80;;;3.05;;
21862;SDS011;11096;51.338;12.524;2022-10-31T06:22:13;5.70;;;2.45;;
21862;SDS011;11096;51.338;12.524;2022-10-31T06:24:38;5.18;;;2.83;;
21862;SDS011;11096;51.338;12.524;2022-10-31T06:27:04;4.50;;;3.30;;
21862;SDS011;11096;51.338;12.524;2022-10-31T06:29:30;5.95;;;3.28;;
21862;SDS011;11096;51.338;12.524;2022-10-31T06:31:55;6.18;;;3.00;;
21862;SDS011;11096;51.338;12.524;2022-10-31T06:34:21;6.90;;;3.38;;
21862;SDS011;11096;51.338;12.524;2022-10-31T06:36:46;5.35;;;2.80;;
21862;SDS011;11096;51.338;12.524;2022-10-31T06:39:12;4.82;;;3.22;;
21862;SDS011;11096;51.338;12.524;2022-10-31T06:41:37;5.47;;;2.72;;
21862;SDS011;11096;51.338;12.524;2022-10-31T06:44:04;6.68;;;3.00;;
21862;SDS011;11096;51.338;12.524;2022-10-31T06:46:30;6.78;;;3.63;;
21862;SDS011;11096;51.338;12.524;2022-10-31T06:48:56;5.85;;;3.35;;
21862;SDS011;11096;51.338;12.524;2022-10-31T06:51:21;5.50;;;3.67;;
21862;SDS011;11096;51.338;12.524;2022-10-31T06:53:46;8.15;;;3.90;;
21862;SDS011;11096;51.338;12.524;2022-10-31T06:56:12;5.30;;;3.47;;
21862;SDS011;11096;51.338;12.524;2022-10-31T06:58:37;6.18;;;3.38;;
21862;SDS011;11096;51.338;12.524;2022-10-31T07:01:02;6.72;;;3.88;;
21862;SDS011;11096;51.338;12.524;2022-10-31T07:03:28;6.25;;;3.53;;
21862;SDS011;11096;51.338;12.524;2022-10-31T07:05:54;6.47;;;3.40;;
21862;SDS011;11096;51.338;12.524;2022-10-31T07:08:21;11.35;;;3.85;;
21862;SDS011;11096;51.338;12.524;2022-10-31T07:10:50;5.65;;;3.53;;
21862;SDS011;11096;51.338;12.524;2022-10-31T07:13:17;8.48;;;4.13;;
21862;SDS011;11096;51.338;12.524;2022-10-31T07:15:42;5.53;;;3.70;;
21862;SDS011;11096;51.338;12.524;2022-10-31T07:18:10;7.78;;;4.15;;
21862;SDS011;11096;51.338;12.524;2022-10-31T07:20:36;6.72;;;3.53;;
21862;SDS011;11096;51.338;12.524;2022-10-31T07:23:02;7.85;;;3.83;;
21862;SDS011;11096;51.338;12.524;2022-10-31T07:25:28;6.03;;;3.25;;
21862;SDS011;11096;51.338;12.524;2022-10-31T07:27:53;9.88;;;4.13;;
21862;SDS011;11096;51.338;12.524;2022-10-31T07:30:19;7.13;;;3.67;;
21862;SDS011;11096;51.338;12.524;2022-10-31T07:32:45;9.38;;;3.80;;
21862;SDS011;11096;51.338;12.524;2022-10-31T07:35:18;5.78;;;3.33;;
21862;SDS011;11096;51.338;12.524;2022-10-31T07:37:48;8.00;;;4.18;;
21862;SDS011;11096;51.338;12.524;2022-10-31T07:40:14;8.93;;;4.20;;
21862;SDS011;11096;51.338;12.524;2022-10-31T07:42:40;6.18;;;3.85;;
21862;SDS011;11096;51.338;12.524;2022-10-31T07:45:08;7.38;;;3.63;;
21862;SDS011;11096;51.338;12.524;2022-10-31T07:50:04;8.55;;;3.85;;
21862;SDS011;11096;51.338;12.524;2022-10-31T07:52:30;7.45;;;3.83;;
21862;SDS011;11096;51.338;12.524;2022-10-31T07:54:56;7.32;;;4.13;;
21862;SDS011;11096;51.338;12.524;2022-10-31T07:57:21;6.75;;;4.30;;
21862;SDS011;11096;51.338;12.524;2022-10-31T07:59:46;10.73;;;4.90;;
21862;SDS011;11096;51.338;12.524;2022-10-31T08:02:12;9.85;;;4.90;;
21862;SDS011;11096;51.338;12.524;2022-10-31T08:04:37;10.18;;;5.35;;
21862;SDS011;11096;51.338;12.524;2022-10-31T08:07:02;11.27;;;4.93;;
21862;SDS011;11096;51.338;12.524;2022-10-31T08:09:28;9.18;;;5.55;;
21862;SDS011;11096;51.338;12.524;2022-10-31T08:11:53;7.22;;;4.93;;
21862;SDS011;11096;51.338;12.524;2022-10-31T08:14:18;10.68;;;4.90;;
21862;SDS011;11096;51.338;12.524;2022-10-31T08:16:44;8.13;;;4.70;;
21862;SDS011;11096;51.338;12.524;2022-10-31T08:19:09;11.48;;;4.80;;
21862;SDS011;11096;51.338;12.524;2022-10-31T08:21:34;8.00;;;4.93;;
21862;SDS011;11096;51.338;12.524;2022-10-31T08:23:59;9.13;;;4.90;;
21862;SDS011;11096;51.338;12.524;2022-10-31T08:26:25;9.23;;;4.88;;
21862;SDS011;11096;51.338;12.524;2022-10-31T08:28:50;12.52;;;5.18;;
21862;SDS011;11096;51.338;12.524;2022-10-31T08:31:16;6.78;;;4.45;;
21862;SDS011;11096;51.338;12.524;2022-10-31T08:33:41;9.50;;;4.97;;
21862;SDS011;11096;51.338;12.524;2022-10-31T08:36:07;10.85;;;5.32;;
21862;SDS011;11096;51.338;12.524;2022-10-31T08:38:33;8.55;;;5.15;;
21862;SDS011;11096;51.338;12.524;2022-10-31T08:40:58;7.72;;;5.35;;
21862;SDS011;11096;51.338;12.524;2022-10-31T08:43:23;6.82;;;4.68;;
21862;SDS011;11096;51.338;12.524;2022-10-31T08:45:49;8.73;;;4.47;;
21862;SDS011;11096;51.338;12.524;2022-10-31T08:48:15;9.00;;;5.40;;
21862;SDS011;11096;51.338;12.524;2022-10-31T08:50:42;9.80;;;5.13;;
21862;SDS011;11096;51.338;12.524;2022-10-31T08:53:15;8.75;;;4.80;;
21862;SDS011;11096;51.338;12.524;2022-10-31T08:55:43;12.35;;;5.85;;
21862;SDS011;11096;51.338;12.524;2022-10-31T08:58:10;7.75;;;4.65;;
21862;SDS011;11096;51.338;12.524;2022-10-31T09:00:37;9.57;;;4.90;;
21862;SDS011;11096;51.338;12.524;2022-10-31T09:03:06;9.50;;;4.85;;
21862;SDS011;11096;51.338;12.524;2022-10-31T09:05:36;12.82;;;5.00;;
21862;SDS011;11096;51.338;12.524;2022-10-31T09:08:02;8.75;;;5.03;;
21862;SDS011;11096;51.338;12.524;2022-10-31T09:10:29;8.05;;;4.60;;
21862;SDS011;11096;51.338;12.524;2022-10-31T09:12:56;10.13;;;5.50;;
21862;SDS011;11096;51.338;12.524;2022-10-31T09:15:25;11.77;;;6.60;;
21862;SDS011;11096;51.338;12.524;2022-10-31T09:17:51;10.98;;;6.25;;
21862;SDS011;11096;51.338;12.524;2022-10-31T09:20:17;12.90;;;7.82;;
21862;SDS011;11096;51.338;12.524;2022-10-31T09:22:43;18.27;;;7.88;;
21862;SDS011;11096;51.338;12.524;2022-10-31T09:25:09;15.35;;;8.00;;
21862;SDS011;11096;51.338;12.524;2022-10-31T09:27:34;20.10;;;8.38;;
21862;SDS011;11096;51.338;12.524;2022-10-31T09:29:59;28.50;;;8.93;;
21862;SDS011;11096;51.338;12.524;2022-10-31T09:32:25;22.75;;;10.32;;
21862;SDS011;11096;51.338;12.524;2022-10-31T09:34:50;22.98;;;9.98;;
21862;SDS011;11096;51.338;12.524;2022-10-31T09:37:15;22.23;;;10.82;;
21862;SDS011;11096;51.338;12.524;2022-10-31T09:39:41;19.27;;;10.35;;
21862;SDS011;11096;51.338;12.524;2022-10-31T09:42:30;27.50;;;10.98;;
21862;SDS011;11096;51.338;12.524;2022-10-31T09:50:34;26.13;;;10.30;;
21862;SDS011;11096;51.338;12.524;2022-10-31T09:52:44;25.83;;;11.20;;
21862;SDS011;11096;51.338;12.524;2022-10-31T09:58:02;22.15;;;10.73;;
21862;SDS011;11096;51.338;12.524;2022-10-31T10:00:28;22.33;;;11.18;;
21862;SDS011;11096;51.338;12.524;2022-10-31T10:05:43;24.92;;;11.75;;
21862;SDS011;11096;51.338;12.524;2022-10-31T10:08:31;31.05;;;13.18;;
21862;SDS011;11096;51.338;12.524;2022-10-31T10:16:39;36.60;;;16.40;;
21862;SDS011;11096;51.338;12.524;2022-10-31T10:22:12;31.27;;;14.48;;
21862;SDS011;11096;51.338;12.524;2022-10-31T10:33:33;29.08;;;14.43;;
21862;SDS011;11096;51.338;12.524;2022-10-31T10:36:05;28.08;;;13.27;;
21862;SDS011;11096;51.338;12.524;2022-10-31T10:38:39;32.33;;;13.38;;
21862;SDS011;11096;51.338;12.524;2022-10-31T10:41:14;29.95;;;14.38;;
21862;SDS011;11096;51.338;12.524;2022-10-31T10:43:42;32.00;;;14.57;;
21862;SDS011;11096;51.338;12.524;2022-10-31T10:49:00;36.35;;;15.35;;
21862;SDS011;11096;51.338;12.524;2022-10-31T10:51:47;34.08;;;15.48;;
21862;SDS011;11096;51.338;12.524;2022-10-31T10:54:21;30.83;;;14.90;;
21862;SDS011;11096;51.338;12.524;2022-10-31T10:59:58;33.08;;;14.88;;
21862;SDS011;11096;51.338;12.524;2022-10-31T11:02:27;34.33;;;13.25;;
21862;SDS011;11096;51.338;12.524;2022-10-31T11:04:58;31.02;;;15.40;;
21862;SDS011;11096;51.338;12.524;2022-10-31T11:07:25;40.45;;;17.20;;
21862;SDS011;11096;51.338;12.524;2022-10-31T11:09:50;37.42;;;17.00;;
21862;SDS011;11096;51.338;12.524;2022-10-31T11:12:29;35.35;;;16.40;;
21862;SDS011;11096;51.338;12.524;2022-10-31T11:14:57;35.30;;;15.52;;
21862;SDS011;11096;51.338;12.524;2022-10-31T11:17:30;29.63;;;15.23;;
21862;SDS011;11096;51.338;12.524;2022-10-31T11:22:38;30.98;;;15.70;;
21862;SDS011;11096;51.338;12.524;2022-10-31T11:25:23;31.10;;;15.30;;
21862;SDS011;11096;51.338;12.524;2022-10-31T11:30:25;30.25;;;15.60;;
21862;SDS011;11096;51.338;12.524;2022-10-31T11:32:51;38.85;;;17.23;;
21862;SDS011;11096;51.338;12.524;2022-10-31T11:35:17;31.80;;;15.35;;
21862;SDS011;11096;51.338;12.524;2022-10-31T11:37:45;33.70;;;17.15;;
21862;SDS011;11096;51.338;12.524;2022-10-31T11:40:16;33.55;;;16.17;;
21862;SDS011;11096;51.338;12.524;2022-10-31T11:42:51;39.25;;;15.35;;
21862;SDS011;11096;51.338;12.524;2022-10-31T11:47:52;35.38;;;15.40;;
21862;SDS011;11096;51.338;12.524;2022-10-31T11:50:25;32.72;;;16.02;;
21862;SDS011;11096;51.338;12.524;2022-10-31T11:52:53;31.85;;;14.88;;
21862;SDS011;11096;51.338;12.524;2022-10-31T11:57:59;35.20;;;17.02;;
21862;SDS011;11096;51.338;12.524;2022-10-31T12:00:25;31.13;;;16.15;;
21862;SDS011;11096;51.338;12.524;2022-10-31T12:06:03;29.70;;;15.98;;
21862;SDS011;11096;51.338;12.524;2022-10-31T12:08:36;36.85;;;15.55;;
21862;SDS011;11096;51.338;12.524;2022-10-31T12:14:08;33.80;;;15.10;;
21862;SDS011;11096;51.338;12.524;2022-10-31T12:17:16;31.77;;;14.55;;
21862;SDS011;11096;51.338;12.524;2022-10-31T12:25:09;37.13;;;16.05;;
21862;SDS011;11096;51.338;12.524;2022-10-31T12:27:59;35.65;;;17.10;;
21862;SDS011;11096;51.338;12.524;2022-10-31T12:30:49;30.38;;;15.13;;
21862;SDS011;11096;51.338;12.524;2022-10-31T12:41:51;31.42;;;15.20;;
21862;SDS011;11096;51.338;12.524;2022-10-31T12:52:59;34.22;;;15.15;;
21862;SDS011;11096;51.338;12.524;2022-10-31T12:55:59;33.80;;;14.60;;
21862;SDS011;11096;51.338;12.524;2022-10-31T12:58:43;33.75;;;15.32;;
21862;SDS011;11096;51.338;12.524;2022-10-31T13:01:22;29.75;;;15.30;;
21862;SDS011;11096;51.338;12.524;2022-10-31T13:03:58;29.23;;;14.18;;
21862;SDS011;11096;51.338;12.524;2022-10-31T13:06:34;32.03;;;15.48;;
21862;SDS011;11096;51.338;12.524;2022-10-31T13:09:15;30.13;;;14.13;;
21862;SDS011;11096;51.338;12.524;2022-10-31T13:11:57;29.35;;;14.05;;
21862;SDS011;11096;51.338;12.524;2022-10-31T13:14:29;25.38;;;13.00;;
21862;SDS011;11096;51.338;12.524;2022-10-31T13:16:59;31.48;;;13.10;;
21862;SDS011;11096;51.338;12.524;2022-10-31T13:19:39;28.95;;;12.30;;
21862;SDS011;11096;51.338;12.524;2022-10-31T13:30:29;31.88;;;13.27;;
21862;SDS011;11096;51.338;12.524;2022-10-31T13:33:00;31.15;;;14.20;;
21862;SDS011;11096;51.338;12.524;2022-10-31T13:35:50;29.58;;;14.80;;
21862;SDS011;11096;51.338;12.524;2022-10-31T13:38:30;25.95;;;13.73;;
21862;SDS011;11096;51.338;12.524;2022-10-31T13:46:45;27.88;;;14.45;;
21862;SDS011;11096;51.338;12.524;2022-10-31T13:54:36;41.42;;;16.38;;
21862;SDS011;11096;51.338;12.524;2022-10-31T13:57:27;33.00;;;16.63;;
21862;SDS011;11096;51.338;12.524;2022-10-31T13:59:58;33.25;;;16.65;;
21862;SDS011;11096;51.338;12.524;2022-10-31T14:02:27;36.95;;;17.02;;
21862;SDS011;11096;51.338;12.524;2022-10-31T14:05:19;35.15;;;16.58;;
21862;SDS011;11096;51.338;12.524;2022-10-31T14:07:54;35.92;;;17.00;;
21862;SDS011;11096;51.338;12.524;2022-10-31T14:10:25;37.25;;;15.52;;
21862;SDS011;11096;51.338;12.524;2022-10-31T14:13:07;32.60;;;14.88;;
21862;SDS011;11096;51.338;12.524;2022-10-31T14:15:51;35.15;;;16.67;;
21862;SDS011;11096;51.338;12.524;2022-10-31T14:20:55;35.53;;;16.15;;
21862;SDS011;11096;51.338;12.524;2022-10-31T14:28:50;34.42;;;16.30;;
21862;SDS011;11096;51.338;12.524;2022-10-31T14:42:31;32.42;;;15.20;;
21862;SDS011;11096;51.338;12.524;2022-10-31T14:50:54;38.08;;;17.13;;
21862;SDS011;11096;51.338;12.524;2022-10-31T14:53:31;32.33;;;16.20;;
21862;SDS011;11096;51.338;12.524;2022-10-31T14:56:09;33.13;;;14.95;;
21862;SDS011;11096;51.338;12.524;2022-10-31T14:58:40;36.33;;;16.75;;
21862;SDS011;11096;51.338;12.524;2022-10-31T15:03:44;35.88;;;16.17;;
21862;SDS011;11096;51.338;12.524;2022-10-31T15:06:12;33.88;;;15.18;;
21862;SDS011;11096;51.338;12.524;2022-10-31T15:08:45;35.70;;;15.85;;
21862;SDS011;11096;51.338;12.524;2022-10-31T15:11:16;39.15;;;16.90;;
21862;SDS011;11096;51.338;12.524;2022-10-31T15:13:55;36.03;;;16.20;;
21862;SDS011;11096;51.338;12.524;2022-10-31T15:16:24;32.72;;;15.18;;
21862;SDS011;11096;51.338;12.524;2022-10-31T15:18:55;34.15;;;15.55;;
21862;SDS011;11096;51.338;12.524;2022-10-31T15:21:24;33.25;;;15.38;;
21862;SDS011;11096;51.338;12.524;2022-10-31T15:23:53;35.90;;;16.52;;
21862;SDS011;11096;51.338;12.524;2022-10-31T15:26:21;34.45;;;16.95;;
21862;SDS011;11096;51.338;12.524;2022-10-31T15:28:59;30.05;;;16.15;;
21862;SDS011;11096;51.338;12.524;2022-10-31T15:31:26;34.88;;;17.75;;
21862;SDS011;11096;51.338;12.524;2022-10-31T15:33:52;33.38;;;16.20;;
21862;SDS011;11096;51.338;12.524;2022-10-31T15:36:21;38.97;;;18.45;;
21862;SDS011;11096;51.338;12.524;2022-10-31T15:38:48;35.42;;;16.95;;
21862;SDS011;11096;51.338;12.524;2022-10-31T15:41:22;32.90;;;17.20;;
21862;SDS011;11096;51.338;12.524;2022-10-31T15:43:54;41.47;;;18.77;;
21862;SDS011;11096;51.338;12.524;2022-10-31T15:46:24;41.88;;;19.73;;
21862;SDS011;11096;51.338;12.524;2022-10-31T15:48:52;40.40;;;18.13;;
21862;SDS011;11096;51.338;12.524;2022-10-31T15:51:17;43.40;;;20.08;;
21862;SDS011;11096;51.338;12.524;2022-10-31T15:53:51;37.10;;;19.83;;
21862;SDS011;11096;51.338;12.524;2022-10-31T15:56:19;39.45;;;20.70;;
21862;SDS011;11096;51.338;12.524;2022-10-31T15:58:48;43.42;;;20.55;;
21862;SDS011;11096;51.338;12.524;2022-10-31T16:01:20;38.20;;;19.90;;
21862;SDS011;11096;51.338;12.524;2022-10-31T16:06:37;46.28;;;20.42;;
21862;SDS011;11096;51.338;12.524;2022-10-31T16:09:03;43.38;;;19.55;;
21862;SDS011;11096;51.338;12.524;2022-10-31T16:11:45;32.55;;;18.20;;
21862;SDS011;11096;51.338;12.524;2022-10-31T16:16:44;44.30;;;19.88;;
21862;SDS011;11096;51.338;12.524;2022-10-31T16:19:19;32.63;;;17.77;;
21862;SDS011;11096;51.338;12.524;2022-10-31T16:21:45;42.60;;;19.23;;
21862;SDS011;11096;51.338;12.524;2022-10-31T16:24:17;34.72;;;17.48;;
21862;SDS011;11096;51.338;12.524;2022-10-31T16:26:48;38.25;;;18.98;;
21862;SDS011;11096;51.338;12.524;2022-10-31T16:32:22;41.70;;;21.08;;
21862;SDS011;11096;51.338;12.524;2022-10-31T16:34:58;41.35;;;20.77;;
21862;SDS011;11096;51.338;12.524;2022-10-31T16:37:24;37.28;;;19.42;;
21862;SDS011;11096;51.338;12.524;2022-10-31T16:39:49;37.47;;;18.88;;
21862;SDS011;11096;51.338;12.524;2022-10-31T16:42:14;40.47;;;21.25;;
21862;SDS011;11096;51.338;12.524;2022-10-31T16:44:40;56.10;;;29.85;;
21862;SDS011;11096;51.338;12.524;2022-10-31T16:47:15;53.33;;;27.63;;
21862;SDS011;11096;51.338;12.524;2022-10-31T16:49:42;39.13;;;22.23;;
21862;SDS011;11096;51.338;12.524;2022-10-31T16:52:08;37.00;;;21.15;;
21862;SDS011;11096;51.338;12.524;2022-10-31T16:54:34;36.75;;;19.10;;
21862;SDS011;11096;51.338;12.524;2022-10-31T16:56:59;33.30;;;17.40;;
21862;SDS011;11096;51.338;12.524;2022-10-31T16:59:27;35.90;;;17.40;;
21862;SDS011;11096;51.338;12.524;2022-10-31T17:01:53;30.95;;;17.02;;
21862;SDS011;11096;51.338;12.524;2022-10-31T17:04:19;35.63;;;19.45;;
21862;SDS011;11096;51.338;12.524;2022-10-31T17:06:45;38.85;;;18.88;;
21862;SDS011;11096;51.338;12.524;2022-10-31T17:09:10;40.15;;;20.48;;
21862;SDS011;11096;51.338;12.524;2022-10-31T17:11:36;35.70;;;19.88;;
21862;SDS011;11096;51.338;12.524;2022-10-31T17:14:07;36.78;;;20.38;;
21862;SDS011;11096;51.338;12.524;2022-10-31T17:16:33;41.22;;;19.50;;